sensor_id;sensor_type;location;lat;lon;timestamp;P1;durP1;ratioP1;P2;durP2;ratioP2
21636;SDS011;10980;49.596;6.142;2023-03-23T00:02:11;3.22;;;1.15;;
21636;SDS011;10980;49.596;6.142;2023-03-23T00:05:33;5.18;;;0.95;;
21636;SDS011;10980;49.596;6.142;2023-03-23T00:09:00;2.03;;;1.10;;
21636;SDS011;10980;49.596;6.142;2023-03-23T00:12:24;2.65;;;1.27;;
21636;SDS011;10980;49.596;6.142;2023-03-23T00:15:53;1.63;;;0.98;;
21636;SDS011;10980;49.596;6.142;2023-03-23T00:19:17;1.80;;;0.98;;
21636;SDS011;10980;49.596;6.142;2023-03-23T00:22:41;3.38;;;1.50;;
21636;SDS011;10980;49.596;6.142;2023-03-23T00:26:05;2.03;;;0.90;;
21636;SDS011;10980;49.596;6.142;2023-03-23T00:29:27;2.35;;;1.33;;
21636;SDS011;10980;49.596;6.142;2023-03-23T00:32:48;2.10;;;1.10;;
21636;SDS011;10980;49.596;6.142;2023-03-23T00:36:11;3.05;;;1.23;;
21636;SDS011;10980;49.596;6.142;2023-03-23T00:39:34;3.28;;;1.25;;
21636;SDS011;10980;49.596;6.142;2023-03-23T00:43:06;2.60;;;1.10;;
21636;SDS011;10980;49.596;6.142;2023-03-23T00:46:28;3.60;;;1.52;;
21636;SDS011;10980;49.596;6.142;2023-03-23T00:49:49;3.70;;;1.48;;
21636;SDS011;10980;49.596;6.142;2023-03-23T00:53:20;3.13;;;1.17;;
21636;SDS011;10980;49.596;6.142;2023-03-23T01:03:32;3.55;;;1.65;;
21636;SDS011;10980;49.596;6.142;2023-03-23T01:06:54;4.50;;;1.77;;
21636;SDS011;10980;49.596;6.142;2023-03-23T01:10:20;3.10;;;1.27;;
21636;SDS011;10980;49.596;6.142;2023-03-23T01:13:42;2.78;;;1.30;;
21636;SDS011;10980;49.596;6.142;2023-03-23T01:17:04;4.10;;;1.58;;
21636;SDS011;10980;49.596;6.142;2023-03-23T01:20:25;2.55;;;1.20;;
21636;SDS011;10980;49.596;6.142;2023-03-23T01:23:50;2.45;;;1.40;;
21636;SDS011;10980;49.596;6.142;2023-03-23T01:30:38;3.33;;;1.63;;
21636;SDS011;10980;49.596;6.142;2023-03-23T01:34:00;3.50;;;1.70;;
21636;SDS011;10980;49.596;6.142;2023-03-23T01:37:22;4.45;;;1.70;;
21636;SDS011;10980;49.596;6.142;2023-03-23T01:40:47;4.10;;;1.48;;
21636;SDS011;10980;49.596;6.142;2023-03-23T01:45:17;3.53;;;1.77;;
21636;SDS011;10980;49.596;6.142;2023-03-23T01:48:04;4.13;;;1.38;;
21636;SDS011;10980;49.596;6.142;2023-03-23T01:51:50;4.88;;;1.83;;
21636;SDS011;10980;49.596;6.142;2023-03-23T01:55:20;4.78;;;1.42;;
21636;SDS011;10980;49.596;6.142;2023-03-23T01:58:45;2.30;;;1.45;;
21636;SDS011;10980;49.596;6.142;2023-03-23T02:02:07;3.65;;;1.30;;
21636;SDS011;10980;49.596;6.142;2023-03-23T02:05:38;2.35;;;1.33;;
21636;SDS011;10980;49.596;6.142;2023-03-23T02:09:14;3.22;;;1.23;;
21636;SDS011;10980;49.596;6.142;2023-03-23T02:12:39;5.07;;;1.70;;
21636;SDS011;10980;49.596;6.142;2023-03-23T02:35:35;3.58;;;1.65;;
21636;SDS011;10980;49.596;6.142;2023-03-23T02:39:24;3.08;;;1.30;;
21636;SDS011;10980;49.596;6.142;2023-03-23T02:42:55;2.45;;;1.40;;
21636;SDS011;10980;49.596;6.142;2023-03-23T02:46:21;4.65;;;1.98;;
21636;SDS011;10980;49.596;6.142;2023-03-23T02:49:46;5.05;;;1.67;;
21636;SDS011;10980;49.596;6.142;2023-03-23T02:53:15;2.58;;;1.60;;
21636;SDS011;10980;49.596;6.142;2023-03-23T02:56:41;5.38;;;1.92;;
21636;SDS011;10980;49.596;6.142;2023-03-23T03:00:15;3.75;;;1.70;;
21636;SDS011;10980;49.596;6.142;2023-03-23T03:03:39;4.10;;;1.48;;
21636;SDS011;10980;49.596;6.142;2023-03-23T03:07:19;3.22;;;1.67;;
21636;SDS011;10980;49.596;6.142;2023-03-23T03:10:58;2.92;;;1.73;;
21636;SDS011;10980;49.596;6.142;2023-03-23T03:14:34;6.18;;;2.42;;
21636;SDS011;10980;49.596;6.142;2023-03-23T03:21:52;8.13;;;2.17;;
21636;SDS011;10980;49.596;6.142;2023-03-23T03:25:32;3.35;;;1.80;;
21636;SDS011;10980;49.596;6.142;2023-03-23T03:28:54;3.33;;;1.85;;
21636;SDS011;10980;49.596;6.142;2023-03-23T03:32:18;3.97;;;2.00;;
21636;SDS011;10980;49.596;6.142;2023-03-23T03:35:46;4.95;;;2.10;;
21636;SDS011;10980;49.596;6.142;2023-03-23T03:39:13;5.60;;;2.20;;
21636;SDS011;10980;49.596;6.142;2023-03-23T03:42:40;3.20;;;2.10;;
21636;SDS011;10980;49.596;6.142;2023-03-23T03:46:06;3.53;;;2.42;;
21636;SDS011;10980;49.596;6.142;2023-03-23T03:49:29;4.38;;;2.70;;
21636;SDS011;10980;49.596;6.142;2023-03-23T03:52:51;7.28;;;2.03;;
21636;SDS011;10980;49.596;6.142;2023-03-23T03:56:13;5.25;;;2.28;;
21636;SDS011;10980;49.596;6.142;2023-03-23T03:59:41;3.20;;;2.08;;
21636;SDS011;10980;49.596;6.142;2023-03-23T04:03:42;5.07;;;2.50;;
21636;SDS011;10980;49.596;6.142;2023-03-23T04:07:11;3.47;;;2.25;;
21636;SDS011;10980;49.596;6.142;2023-03-23T04:10:37;5.57;;;2.50;;
21636;SDS011;10980;49.596;6.142;2023-03-23T04:13:58;3.03;;;2.25;;
21636;SDS011;10980;49.596;6.142;2023-03-23T04:17:25;3.47;;;2.10;;
21636;SDS011;10980;49.596;6.142;2023-03-23T04:20:47;2.85;;;1.88;;
21636;SDS011;10980;49.596;6.142;2023-03-23T04:24:11;3.75;;;1.95;;
21636;SDS011;10980;49.596;6.142;2023-03-23T04:27:39;5.95;;;2.33;;
21636;SDS011;10980;49.596;6.142;2023-03-23T04:31:04;7.32;;;2.15;;
21636;SDS011;10980;49.596;6.142;2023-03-23T04:34:25;4.55;;;2.50;;
21636;SDS011;10980;49.596;6.142;2023-03-23T04:37:47;3.25;;;1.80;;
21636;SDS011;10980;49.596;6.142;2023-03-23T04:41:13;6.20;;;2.15;;
21636;SDS011;10980;49.596;6.142;2023-03-23T04:44:42;6.15;;;2.17;;
21636;SDS011;10980;49.596;6.142;2023-03-23T04:48:07;4.28;;;1.90;;
21636;SDS011;10980;49.596;6.142;2023-03-23T04:51:42;5.05;;;2.40;;
21636;SDS011;10980;49.596;6.142;2023-03-23T04:55:12;4.72;;;1.98;;
21636;SDS011;10980;49.596;6.142;2023-03-23T04:58:37;3.92;;;1.88;;
21636;SDS011;10980;49.596;6.142;2023-03-23T05:02:25;4.10;;;1.90;;
21636;SDS011;10980;49.596;6.142;2023-03-23T05:05:51;4.03;;;1.70;;
21636;SDS011;10980;49.596;6.142;2023-03-23T05:09:15;3.90;;;2.00;;
21636;SDS011;10980;49.596;6.142;2023-03-23T05:12:36;5.43;;;2.60;;
21636;SDS011;10980;49.596;6.142;2023-03-23T05:16:04;3.03;;;1.90;;
21636;SDS011;10980;49.596;6.142;2023-03-23T05:19:28;2.58;;;1.52;;
21636;SDS011;10980;49.596;6.142;2023-03-23T05:22:53;2.45;;;1.58;;
21636;SDS011;10980;49.596;6.142;2023-03-23T05:26:22;2.78;;;1.50;;
21636;SDS011;10980;49.596;6.142;2023-03-23T05:29:55;5.13;;;1.70;;
21636;SDS011;10980;49.596;6.142;2023-03-23T05:33:24;3.47;;;2.00;;
21636;SDS011;10980;49.596;6.142;2023-03-23T05:36:56;4.00;;;2.05;;
21636;SDS011;10980;49.596;6.142;2023-03-23T05:40:21;5.15;;;2.00;;
21636;SDS011;10980;49.596;6.142;2023-03-23T05:43:51;5.40;;;1.92;;
21636;SDS011;10980;49.596;6.142;2023-03-23T05:50:48;4.38;;;2.13;;
21636;SDS011;10980;49.596;6.142;2023-03-23T05:54:12;6.22;;;1.95;;
21636;SDS011;10980;49.596;6.142;2023-03-23T05:57:38;4.43;;;1.92;;
21636;SDS011;10980;49.596;6.142;2023-03-23T06:01:17;2.92;;;1.92;;
21636;SDS011;10980;49.596;6.142;2023-03-23T06:04:38;3.33;;;2.03;;
21636;SDS011;10980;49.596;6.142;2023-03-23T06:08:11;3.28;;;1.90;;
21636;SDS011;10980;49.596;6.142;2023-03-23T06:11:32;6.40;;;1.58;;
21636;SDS011;10980;49.596;6.142;2023-03-23T06:15:17;3.55;;;1.77;;
21636;SDS011;10980;49.596;6.142;2023-03-23T06:19:11;2.90;;;1.83;;
21636;SDS011;10980;49.596;6.142;2023-03-23T06:22:39;3.58;;;1.83;;
21636;SDS011;10980;49.596;6.142;2023-03-23T06:26:04;4.40;;;1.92;;
21636;SDS011;10980;49.596;6.142;2023-03-23T06:29:29;3.40;;;1.60;;
21636;SDS011;10980;49.596;6.142;2023-03-23T06:32:50;4.72;;;2.00;;
21636;SDS011;10980;49.596;6.142;2023-03-23T06:36:21;4.28;;;1.40;;
21636;SDS011;10980;49.596;6.142;2023-03-23T06:39:51;7.13;;;2.13;;
21636;SDS011;10980;49.596;6.142;2023-03-23T06:43:16;4.78;;;1.77;;
21636;SDS011;10980;49.596;6.142;2023-03-23T06:46:49;7.38;;;1.90;;
21636;SDS011;10980;49.596;6.142;2023-03-23T06:50:15;5.97;;;1.77;;
21636;SDS011;10980;49.596;6.142;2023-03-23T06:53:37;4.93;;;1.90;;
21636;SDS011;10980;49.596;6.142;2023-03-23T06:56:59;7.00;;;2.55;;
21636;SDS011;10980;49.596;6.142;2023-03-23T07:00:21;8.50;;;2.30;;
21636;SDS011;10980;49.596;6.142;2023-03-23T07:03:42;4.35;;;2.28;;
21636;SDS011;10980;49.596;6.142;2023-03-23T07:07:07;4.95;;;2.03;;
21636;SDS011;10980;49.596;6.142;2023-03-23T07:10:39;5.50;;;2.55;;
21636;SDS011;10980;49.596;6.142;2023-03-23T07:14:06;4.97;;;2.67;;
21636;SDS011;10980;49.596;6.142;2023-03-23T07:17:31;6.20;;;2.60;;
21636;SDS011;10980;49.596;6.142;2023-03-23T07:21:11;7.22;;;2.58;;
21636;SDS011;10980;49.596;6.142;2023-03-23T07:24:34;5.32;;;2.28;;
21636;SDS011;10980;49.596;6.142;2023-03-23T07:28:12;4.32;;;1.88;;
21636;SDS011;10980;49.596;6.142;2023-03-23T07:31:33;3.65;;;1.85;;
21636;SDS011;10980;49.596;6.142;2023-03-23T07:34:55;4.25;;;1.52;;
21636;SDS011;10980;49.596;6.142;2023-03-23T07:38:24;2.97;;;1.65;;
21636;SDS011;10980;49.596;6.142;2023-03-23T07:41:47;3.25;;;1.20;;
21636;SDS011;10980;49.596;6.142;2023-03-23T07:45:15;2.63;;;1.40;;
21636;SDS011;10980;49.596;6.142;2023-03-23T07:48:36;6.13;;;1.38;;
21636;SDS011;10980;49.596;6.142;2023-03-23T07:51:58;3.40;;;1.58;;
21636;SDS011;10980;49.596;6.142;2023-03-23T07:55:22;6.35;;;1.40;;
21636;SDS011;10980;49.596;6.142;2023-03-23T07:59:03;2.63;;;1.08;;
21636;SDS011;10980;49.596;6.142;2023-03-23T08:02:26;2.83;;;1.15;;
21636;SDS011;10980;49.596;6.142;2023-03-23T08:06:09;3.95;;;2.38;;
21636;SDS011;10980;49.596;6.142;2023-03-23T08:09:58;4.07;;;1.30;;
21636;SDS011;10980;49.596;6.142;2023-03-23T08:13:38;2.03;;;1.20;;
21636;SDS011;10980;49.596;6.142;2023-03-23T08:17:12;3.00;;;1.30;;
21636;SDS011;10980;49.596;6.142;2023-03-23T08:20:56;3.53;;;1.20;;
21636;SDS011;10980;49.596;6.142;2023-03-23T08:24:31;4.22;;;1.20;;
21636;SDS011;10980;49.596;6.142;2023-03-23T08:28:18;2.42;;;1.25;;
21636;SDS011;10980;49.596;6.142;2023-03-23T08:32:06;3.15;;;1.27;;
21636;SDS011;10980;49.596;6.142;2023-03-23T08:35:53;7.32;;;1.27;;
21636;SDS011;10980;49.596;6.142;2023-03-23T08:39:45;7.32;;;1.52;;
21636;SDS011;10980;49.596;6.142;2023-03-23T08:43:27;4.65;;;1.67;;
21636;SDS011;10980;49.596;6.142;2023-03-23T08:47:25;7.18;;;1.50;;
21636;SDS011;10980;49.596;6.142;2023-03-23T08:51:10;6.65;;;1.90;;
21636;SDS011;10980;49.596;6.142;2023-03-23T08:54:39;8.93;;;1.85;;
21636;SDS011;10980;49.596;6.142;2023-03-23T08:58:15;6.03;;;1.60;;
21636;SDS011;10980;49.596;6.142;2023-03-23T09:02:03;3.70;;;1.33;;
21636;SDS011;10980;49.596;6.142;2023-03-23T09:05:31;1.52;;;0.88;;
21636;SDS011;10980;49.596;6.142;2023-03-23T09:09:10;5.05;;;1.10;;
21636;SDS011;10980;49.596;6.142;2023-03-23T09:12:31;4.68;;;1.30;;
21636;SDS011;10980;49.596;6.142;2023-03-23T09:15:52;3.00;;;1.30;;
21636;SDS011;10980;49.596;6.142;2023-03-23T09:19:13;7.97;;;1.17;;
21636;SDS011;10980;49.596;6.142;2023-03-23T09:22:33;2.78;;;1.25;;
21636;SDS011;10980;49.596;6.142;2023-03-23T09:25:54;5.22;;;1.40;;
21636;SDS011;10980;49.596;6.142;2023-03-23T09:29:15;5.75;;;1.38;;
21636;SDS011;10980;49.596;6.142;2023-03-23T09:32:38;1.98;;;1.00;;
21636;SDS011;10980;49.596;6.142;2023-03-23T09:35:59;2.65;;;1.20;;
21636;SDS011;10980;49.596;6.142;2023-03-23T09:39:22;5.85;;;1.00;;
21636;SDS011;10980;49.596;6.142;2023-03-23T09:42:49;2.70;;;0.93;;
21636;SDS011;10980;49.596;6.142;2023-03-23T09:46:58;2.08;;;0.90;;
21636;SDS011;10980;49.596;6.142;2023-03-23T09:50:37;2.78;;;0.90;;
21636;SDS011;10980;49.596;6.142;2023-03-23T09:54:05;4.70;;;1.20;;
21636;SDS011;10980;49.596;6.142;2023-03-23T09:57:44;3.08;;;0.90;;
21636;SDS011;10980;49.596;6.142;2023-03-23T10:01:33;2.50;;;0.65;;
21636;SDS011;10980;49.596;6.142;2023-03-23T10:05:15;3.50;;;0.60;;
21636;SDS011;10980;49.596;6.142;2023-03-23T10:09:00;1.85;;;0.88;;
21636;SDS011;10980;49.596;6.142;2023-03-23T10:16:25;2.67;;;0.98;;
21636;SDS011;10980;49.596;6.142;2023-03-23T10:31:10;2.10;;;1.10;;
21636;SDS011;10980;49.596;6.142;2023-03-23T10:38:13;2.92;;;1.27;;
21636;SDS011;10980;49.596;6.142;2023-03-23T10:41:43;2.25;;;1.10;;
21636;SDS011;10980;49.596;6.142;2023-03-23T10:45:12;1.27;;;1.00;;
21636;SDS011;10980;49.596;6.142;2023-03-23T10:48:43;2.60;;;1.10;;
21636;SDS011;10980;49.596;6.142;2023-03-23T10:55:35;4.15;;;1.23;;
21636;SDS011;10980;49.596;6.142;2023-03-23T10:59:10;5.30;;;0.95;;
21636;SDS011;10980;49.596;6.142;2023-03-23T11:06:29;3.53;;;3.22;;
21636;SDS011;10980;49.596;6.142;2023-03-23T11:14:12;3.75;;;0.70;;
21636;SDS011;10980;49.596;6.142;2023-03-23T11:17:55;4.30;;;1.58;;
21636;SDS011;10980;49.596;6.142;2023-03-23T11:21:19;1.58;;;1.17;;
21636;SDS011;10980;49.596;6.142;2023-03-23T11:24:44;2.42;;;0.93;;
21636;SDS011;10980;49.596;6.142;2023-03-23T11:28:11;5.78;;;1.10;;
21636;SDS011;10980;49.596;6.142;2023-03-23T11:31:34;1.70;;;0.90;;
21636;SDS011;10980;49.596;6.142;2023-03-23T11:35:00;3.22;;;1.00;;
21636;SDS011;10980;49.596;6.142;2023-03-23T11:38:25;227.57;;;214.77;;
21636;SDS011;10980;49.596;6.142;2023-03-23T11:41:48;260.15;;;245.52;;
21636;SDS011;10980;49.596;6.142;2023-03-23T11:48:57;153.95;;;145.00;;
21636;SDS011;10980;49.596;6.142;2023-03-23T11:52:34;198.88;;;187.30;;
21636;SDS011;10980;49.596;6.142;2023-03-23T11:56:11;181.10;;;170.85;;
21636;SDS011;10980;49.596;6.142;2023-03-23T11:59:37;167.52;;;158.15;;
21636;SDS011;10980;49.596;6.142;2023-03-23T12:18:37;237.80;;;217.20;;
21636;SDS011;10980;49.596;6.142;2023-03-23T12:39:11;13.57;;;12.18;;
21636;SDS011;10980;49.596;6.142;2023-03-23T12:54:41;4.38;;;2.80;;
21636;SDS011;10980;49.596;6.142;2023-03-23T12:58:21;5.38;;;1.10;;
21636;SDS011;10980;49.596;6.142;2023-03-23T13:01:53;6.90;;;1.17;;
21636;SDS011;10980;49.596;6.142;2023-03-23T13:05:45;3.55;;;1.00;;
21636;SDS011;10980;49.596;6.142;2023-03-23T13:12:48;3.70;;;1.15;;
21636;SDS011;10980;49.596;6.142;2023-03-23T13:23:42;12.02;;;1.70;;
21636;SDS011;10980;49.596;6.142;2023-03-23T13:27:15;4.15;;;1.00;;
21636;SDS011;10980;49.596;6.142;2023-03-23T13:30:37;4.47;;;1.10;;
21636;SDS011;10980;49.596;6.142;2023-03-23T13:34:02;6.97;;;1.10;;
21636;SDS011;10980;49.596;6.142;2023-03-23T13:37:30;9.73;;;1.63;;
21636;SDS011;10980;49.596;6.142;2023-03-23T13:40:52;11.98;;;1.85;;
21636;SDS011;10980;49.596;6.142;2023-03-23T13:44:17;6.88;;;1.90;;
21636;SDS011;10980;49.596;6.142;2023-03-23T13:47:47;5.85;;;1.35;;
21636;SDS011;10980;49.596;6.142;2023-03-23T13:55:08;3.13;;;1.25;;
21636;SDS011;10980;49.596;6.142;2023-03-23T13:58:44;6.50;;;1.35;;
21636;SDS011;10980;49.596;6.142;2023-03-23T14:02:32;7.97;;;1.80;;
21636;SDS011;10980;49.596;6.142;2023-03-23T14:06:05;6.28;;;1.10;;
21636;SDS011;10980;49.596;6.142;2023-03-23T14:10:04;5.03;;;1.40;;
21636;SDS011;10980;49.596;6.142;2023-03-23T14:17:24;8.55;;;1.35;;
21636;SDS011;10980;49.596;6.142;2023-03-23T14:20:49;7.90;;;1.70;;
21636;SDS011;10980;49.596;6.142;2023-03-23T14:24:22;3.38;;;1.45;;
21636;SDS011;10980;49.596;6.142;2023-03-23T14:27:50;6.03;;;1.45;;
21636;SDS011;10980;49.596;6.142;2023-03-23T14:31:17;10.77;;;1.77;;
21636;SDS011;10980;49.596;6.142;2023-03-23T14:34:46;7.18;;;1.40;;
21636;SDS011;10980;49.596;6.142;2023-03-23T14:38:16;9.30;;;1.92;;
21636;SDS011;10980;49.596;6.142;2023-03-23T14:41:52;8.32;;;1.27;;
21636;SDS011;10980;49.596;6.142;2023-03-23T14:45:17;5.13;;;1.27;;
21636;SDS011;10980;49.596;6.142;2023-03-23T14:48:41;6.53;;;1.10;;
21636;SDS011;10980;49.596;6.142;2023-03-23T14:52:13;8.18;;;1.33;;
21636;SDS011;10980;49.596;6.142;2023-03-23T14:55:38;4.25;;;1.20;;
21636;SDS011;10980;49.596;6.142;2023-03-23T14:59:05;4.68;;;1.08;;
21636;SDS011;10980;49.596;6.142;2023-03-23T15:02:37;4.18;;;1.30;;
21636;SDS011;10980;49.596;6.142;2023-03-23T15:06:03;4.18;;;1.35;;
21636;SDS011;10980;49.596;6.142;2023-03-23T15:09:32;6.70;;;1.33;;
21636;SDS011;10980;49.596;6.142;2023-03-23T15:12:58;3.42;;;1.10;;
21636;SDS011;10980;49.596;6.142;2023-03-23T15:16:20;4.78;;;1.35;;
21636;SDS011;10980;49.596;6.142;2023-03-23T15:19:46;3.35;;;1.02;;
21636;SDS011;10980;49.596;6.142;2023-03-23T15:23:21;3.30;;;0.90;;
21636;SDS011;10980;49.596;6.142;2023-03-23T15:26:50;2.65;;;0.95;;
21636;SDS011;10980;49.596;6.142;2023-03-23T15:30:31;4.47;;;1.40;;
21636;SDS011;10980;49.596;6.142;2023-03-23T15:34:05;2.85;;;1.05;;
21636;SDS011;10980;49.596;6.142;2023-03-23T15:37:35;8.43;;;1.10;;
21636;SDS011;10980;49.596;6.142;2023-03-23T15:41:05;5.15;;;1.23;;
21636;SDS011;10980;49.596;6.142;2023-03-23T15:44:42;5.63;;;1.90;;
21636;SDS011;10980;49.596;6.142;2023-03-23T15:48:09;2.67;;;1.00;;
21636;SDS011;10980;49.596;6.142;2023-03-23T15:51:32;4.80;;;1.55;;
21636;SDS011;10980;49.596;6.142;2023-03-23T15:54:53;3.05;;;1.13;;
21636;SDS011;10980;49.596;6.142;2023-03-23T15:58:16;5.05;;;0.90;;
21636;SDS011;10980;49.596;6.142;2023-03-23T16:01:41;3.08;;;1.00;;
21636;SDS011;10980;49.596;6.142;2023-03-23T16:05:04;5.03;;;1.10;;
21636;SDS011;10980;49.596;6.142;2023-03-23T16:08:26;4.38;;;1.60;;
21636;SDS011;10980;49.596;6.142;2023-03-23T16:11:49;6.35;;;1.10;;
21636;SDS011;10980;49.596;6.142;2023-03-23T16:15:11;2.40;;;0.90;;
21636;SDS011;10980;49.596;6.142;2023-03-23T16:18:36;4.20;;;0.90;;
21636;SDS011;10980;49.596;6.142;2023-03-23T16:21:58;2.72;;;1.02;;
21636;SDS011;10980;49.596;6.142;2023-03-23T16:25:22;13.27;;;1.50;;
21636;SDS011;10980;49.596;6.142;2023-03-23T16:28:46;12.65;;;1.40;;
21636;SDS011;10980;49.596;6.142;2023-03-23T16:32:08;4.55;;;1.40;;
21636;SDS011;10980;49.596;6.142;2023-03-23T16:35:30;5.57;;;1.20;;
21636;SDS011;10980;49.596;6.142;2023-03-23T16:38:52;5.95;;;0.95;;
21636;SDS011;10980;49.596;6.142;2023-03-23T16:42:15;3.58;;;1.02;;
21636;SDS011;10980;49.596;6.142;2023-03-23T16:45:37;320.67;;;283.40;;
21636;SDS011;10980;49.596;6.142;2023-03-23T16:49:04;933.22;;;831.47;;
21636;SDS011;10980;49.596;6.142;2023-03-23T16:52:26;720.92;;;528.25;;
21636;SDS011;10980;49.596;6.142;2023-03-23T16:55:52;98.53;;;64.65;;
21636;SDS011;10980;49.596;6.142;2023-03-23T16:59:18;61.28;;;55.47;;
21636;SDS011;10980;49.596;6.142;2023-03-23T17:02:43;1999.90;;;999.90;;
21636;SDS011;10980;49.596;6.142;2023-03-23T17:06:06;1563.28;;;738.45;;
21636;SDS011;10980;49.596;6.142;2023-03-23T17:09:28;60.53;;;56.20;;
21636;SDS011;10980;49.596;6.142;2023-03-23T17:12:50;1999.90;;;999.90;;
21636;SDS011;10980;49.596;6.142;2023-03-23T17:16:13;1778.18;;;493.83;;
21636;SDS011;10980;49.596;6.142;2023-03-23T17:19:36;1999.90;;;933.92;;
21636;SDS011;10980;49.596;6.142;2023-03-23T17:22:58;1153.90;;;333.08;;
21636;SDS011;10980;49.596;6.142;2023-03-23T17:26:20;17.02;;;11.82;;
21636;SDS011;10980;49.596;6.142;2023-03-23T17:29:42;2.35;;;0.80;;
21636;SDS011;10980;49.596;6.142;2023-03-23T17:33:07;2.67;;;1.20;;
21636;SDS011;10980;49.596;6.142;2023-03-23T17:36:31;13.48;;;1.42;;
21636;SDS011;10980;49.596;6.142;2023-03-23T17:39:53;3.83;;;1.10;;
21636;SDS011;10980;49.596;6.142;2023-03-23T17:43:16;6.00;;;1.10;;
21636;SDS011;10980;49.596;6.142;2023-03-23T17:46:42;2.58;;;1.20;;
21636;SDS011;10980;49.596;6.142;2023-03-23T17:53:33;2.97;;;1.38;;
21636;SDS011;10980;49.596;6.142;2023-03-23T18:00:30;3.58;;;0.95;;
21636;SDS011;10980;49.596;6.142;2023-03-23T18:03:52;5.43;;;1.45;;
21636;SDS011;10980;49.596;6.142;2023-03-23T18:07:14;3.55;;;1.40;;
21636;SDS011;10980;49.596;6.142;2023-03-23T18:10:40;2.60;;;1.20;;
21636;SDS011;10980;49.596;6.142;2023-03-23T18:14:06;2.85;;;1.30;;
21636;SDS011;10980;49.596;6.142;2023-03-23T18:17:28;5.05;;;1.60;;
21636;SDS011;10980;49.596;6.142;2023-03-23T18:20:57;4.50;;;1.20;;
21636;SDS011;10980;49.596;6.142;2023-03-23T18:28:03;10.02;;;2.10;;
21636;SDS011;10980;49.596;6.142;2023-03-23T18:31:29;10.38;;;1.85;;
21636;SDS011;10980;49.596;6.142;2023-03-23T18:34:51;2.30;;;1.50;;
21636;SDS011;10980;49.596;6.142;2023-03-23T18:38:17;3.15;;;1.60;;
21636;SDS011;10980;49.596;6.142;2023-03-23T18:41:49;3.15;;;1.65;;
21636;SDS011;10980;49.596;6.142;2023-03-23T18:45:11;7.30;;;1.63;;
21636;SDS011;10980;49.596;6.142;2023-03-23T18:48:34;5.10;;;2.15;;
21636;SDS011;10980;49.596;6.142;2023-03-23T18:51:58;5.28;;;2.00;;
21636;SDS011;10980;49.596;6.142;2023-03-23T18:55:20;3.72;;;1.90;;
21636;SDS011;10980;49.596;6.142;2023-03-23T18:58:44;4.95;;;1.90;;
21636;SDS011;10980;49.596;6.142;2023-03-23T19:02:06;4.47;;;1.67;;
21636;SDS011;10980;49.596;6.142;2023-03-23T19:05:34;5.38;;;1.88;;
21636;SDS011;10980;49.596;6.142;2023-03-23T19:08:59;4.15;;;1.65;;
21636;SDS011;10980;49.596;6.142;2023-03-23T19:12:23;4.65;;;2.13;;
21636;SDS011;10980;49.596;6.142;2023-03-23T19:15:45;4.70;;;2.05;;
21636;SDS011;10980;49.596;6.142;2023-03-23T19:19:08;4.63;;;2.05;;
21636;SDS011;10980;49.596;6.142;2023-03-23T19:22:38;3.47;;;2.03;;
21636;SDS011;10980;49.596;6.142;2023-03-23T19:26:02;3.80;;;1.83;;
21636;SDS011;10980;49.596;6.142;2023-03-23T19:29:24;3.63;;;1.95;;
21636;SDS011;10980;49.596;6.142;2023-03-23T19:32:47;5.78;;;2.30;;
21636;SDS011;10980;49.596;6.142;2023-03-23T19:36:10;3.22;;;2.00;;
21636;SDS011;10980;49.596;6.142;2023-03-23T19:39:33;8.80;;;2.50;;
21636;SDS011;10980;49.596;6.142;2023-03-23T19:42:56;4.80;;;2.75;;
21636;SDS011;10980;49.596;6.142;2023-03-23T19:46:19;4.20;;;2.30;;
21636;SDS011;10980;49.596;6.142;2023-03-23T19:49:43;5.15;;;2.60;;
21636;SDS011;10980;49.596;6.142;2023-03-23T19:53:05;3.20;;;2.30;;
21636;SDS011;10980;49.596;6.142;2023-03-23T19:56:31;6.72;;;2.78;;
21636;SDS011;10980;49.596;6.142;2023-03-23T19:59:55;5.15;;;2.67;;
21636;SDS011;10980;49.596;6.142;2023-03-23T20:03:20;4.07;;;2.60;;
21636;SDS011;10980;49.596;6.142;2023-03-23T20:06:50;6.15;;;2.97;;
21636;SDS011;10980;49.596;6.142;2023-03-23T20:10:18;6.72;;;3.13;;
21636;SDS011;10980;49.596;6.142;2023-03-23T20:13:41;5.05;;;2.85;;
21636;SDS011;10980;49.596;6.142;2023-03-23T20:17:05;6.60;;;3.13;;
21636;SDS011;10980;49.596;6.142;2023-03-23T20:20:30;4.50;;;2.92;;
21636;SDS011;10980;49.596;6.142;2023-03-23T20:23:58;4.85;;;3.47;;
21636;SDS011;10980;49.596;6.142;2023-03-23T20:27:21;4.82;;;3.05;;
21636;SDS011;10980;49.596;6.142;2023-03-23T20:30:44;4.30;;;2.75;;
21636;SDS011;10980;49.596;6.142;2023-03-23T20:34:29;5.78;;;3.10;;
21636;SDS011;10980;49.596;6.142;2023-03-23T20:37:52;4.57;;;2.50;;
21636;SDS011;10980;49.596;6.142;2023-03-23T20:41:17;6.72;;;2.85;;
21636;SDS011;10980;49.596;6.142;2023-03-23T20:44:41;4.72;;;3.22;;
21636;SDS011;10980;49.596;6.142;2023-03-23T20:48:03;5.93;;;2.78;;
21636;SDS011;10980;49.596;6.142;2023-03-23T20:51:26;5.53;;;2.78;;
21636;SDS011;10980;49.596;6.142;2023-03-23T20:54:48;7.75;;;2.78;;
21636;SDS011;10980;49.596;6.142;2023-03-23T20:58:11;6.47;;;3.20;;
21636;SDS011;10980;49.596;6.142;2023-03-23T21:01:33;5.97;;;3.25;;
21636;SDS011;10980;49.596;6.142;2023-03-23T21:04:58;8.95;;;3.30;;
21636;SDS011;10980;49.596;6.142;2023-03-23T21:08:24;9.30;;;2.72;;
21636;SDS011;10980;49.596;6.142;2023-03-23T21:11:48;6.75;;;3.17;;
21636;SDS011;10980;49.596;6.142;2023-03-23T21:15:13;4.72;;;2.33;;
21636;SDS011;10980;49.596;6.142;2023-03-23T21:18:41;7.70;;;2.17;;
21636;SDS011;10980;49.596;6.142;2023-03-23T21:22:05;5.45;;;1.98;;
21636;SDS011;10980;49.596;6.142;2023-03-23T21:25:27;9.00;;;2.20;;
21636;SDS011;10980;49.596;6.142;2023-03-23T21:28:55;3.17;;;1.90;;
21636;SDS011;10980;49.596;6.142;2023-03-23T21:35:46;5.38;;;1.60;;
21636;SDS011;10980;49.596;6.142;2023-03-23T21:39:08;4.47;;;1.80;;
21636;SDS011;10980;49.596;6.142;2023-03-23T21:42:30;3.65;;;1.85;;
21636;SDS011;10980;49.596;6.142;2023-03-23T21:45:54;3.40;;;1.63;;
21636;SDS011;10980;49.596;6.142;2023-03-23T21:49:19;5.28;;;1.75;;
21636;SDS011;10980;49.596;6.142;2023-03-23T21:52:41;5.93;;;1.70;;
21636;SDS011;10980;49.596;6.142;2023-03-23T21:56:04;5.15;;;1.80;;
21636;SDS011;10980;49.596;6.142;2023-03-23T21:59:29;7.82;;;1.95;;
21636;SDS011;10980;49.596;6.142;2023-03-23T22:02:51;5.68;;;2.00;;
21636;SDS011;10980;49.596;6.142;2023-03-23T22:06:14;7.53;;;2.05;;
21636;SDS011;10980;49.596;6.142;2023-03-23T22:09:46;7.30;;;1.88;;
21636;SDS011;10980;49.596;6.142;2023-03-23T22:13:09;3.60;;;1.77;;
21636;SDS011;10980;49.596;6.142;2023-03-23T22:16:36;8.80;;;2.10;;
21636;SDS011;10980;49.596;6.142;2023-03-23T22:19:58;6.50;;;2.58;;
21636;SDS011;10980;49.596;6.142;2023-03-23T22:23:21;5.00;;;2.33;;
21636;SDS011;10980;49.596;6.142;2023-03-23T22:26:43;3.97;;;1.80;;
21636;SDS011;10980;49.596;6.142;2023-03-23T22:30:06;3.58;;;2.03;;
21636;SDS011;10980;49.596;6.142;2023-03-23T22:33:29;4.65;;;1.90;;
21636;SDS011;10980;49.596;6.142;2023-03-23T22:36:52;3.50;;;1.88;;
21636;SDS011;10980;49.596;6.142;2023-03-23T22:40:14;8.55;;;2.17;;
21636;SDS011;10980;49.596;6.142;2023-03-23T22:43:36;5.15;;;2.00;;
21636;SDS011;10980;49.596;6.142;2023-03-23T22:46:58;6.53;;;2.38;;
21636;SDS011;10980;49.596;6.142;2023-03-23T22:50:21;4.40;;;2.00;;
21636;SDS011;10980;49.596;6.142;2023-03-23T22:53:47;4.00;;;2.15;;
21636;SDS011;10980;49.596;6.142;2023-03-23T22:57:10;4.07;;;2.20;;
21636;SDS011;10980;49.596;6.142;2023-03-23T23:00:31;4.47;;;2.20;;
21636;SDS011;10980;49.596;6.142;2023-03-23T23:03:54;7.30;;;2.30;;
21636;SDS011;10980;49.596;6.142;2023-03-23T23:07:16;4.75;;;1.90;;
21636;SDS011;10980;49.596;6.142;2023-03-23T23:10:40;3.75;;;1.90;;
21636;SDS011;10980;49.596;6.142;2023-03-23T23:14:07;4.75;;;2.67;;
21636;SDS011;10980;49.596;6.142;2023-03-23T23:20:56;7.10;;;2.25;;